createdAt,value
2022-08-22T00:03:15.495Z,214.23
2022-08-22T00:08:46.406Z,215.03
2022-08-22T00:18:57.443Z,215.37
2022-08-22T00:29:08.989Z,212.13
2022-08-22T00:39:18.952Z,216.03
2022-08-22T00:49:51.938Z,214.53
2022-08-22T01:00:15.100Z,212.33
2022-08-22T01:10:50.688Z,220.27
2022-08-22T01:21:45.536Z,216.07
2022-08-22T01:32:56.970Z,210.80
2022-08-22T01:43:12.177Z,217.60
2022-08-22T01:53:26.182Z,218.27
2022-08-22T02:03:41.361Z,221.37
2022-08-22T02:13:56.081Z,216.00
2022-08-22T02:24:05.902Z,214.60
2022-08-22T02:34:35.355Z,220.40
2022-08-22T02:44:49.035Z,215.80
2022-08-22T02:54:59.619Z,222.50
2022-08-22T03:05:24.528Z,219.83
2022-08-22T03:15:38.517Z,214.57
2022-08-22T03:25:52.229Z,217.80
2022-08-22T03:36:06.638Z,219.00
2022-08-22T03:47:02.911Z,218.30
2022-08-22T03:57:46.795Z,224.13
2022-08-22T04:08:33.037Z,220.57
2022-08-22T04:19:18.454Z,219.63
2022-08-22T04:29:29.134Z,223.10
2022-08-22T04:39:43.069Z,225.23
2022-08-22T04:49:53.608Z,223.20
2022-08-22T05:00:02.497Z,228.37
2022-08-22T05:10:15.376Z,226.77
2022-08-22T05:20:23.442Z,224.53
2022-08-22T05:30:32.285Z,236.33
2022-08-22T05:40:39.070Z,228.50
2022-08-22T05:50:50.822Z,227.37
2022-08-22T06:01:03.759Z,226.10
2022-08-22T06:11:14.489Z,228.43
2022-08-22T06:21:24.239Z,225.30
2022-08-22T06:31:34.252Z,229.80
2022-08-22T06:41:42.479Z,227.17
2022-08-22T06:51:52.429Z,232.93
2022-08-22T07:02:05.419Z,223.87
2022-08-22T07:12:20.913Z,232.60
2022-08-22T07:22:28.566Z,226.93
2022-08-22T07:32:49.681Z,225.23
2022-08-22T07:43:00.352Z,237.47
2022-08-22T07:53:15.580Z,236.90
2022-08-22T08:03:23.768Z,227.07
2022-08-22T08:13:36.339Z,228.77
2022-08-22T08:23:46.798Z,237.83
2022-08-22T08:34:01.430Z,242.07
2022-08-22T08:44:24.025Z,242.13
2022-08-22T08:54:57.764Z,246.23
2022-08-22T09:05:55.877Z,243.17
2022-08-22T09:16:20.128Z,255.90
2022-08-22T09:26:31.984Z,251.40
2022-08-22T09:37:04.571Z,253.00
2022-08-22T09:47:24.352Z,251.67
2022-08-22T09:57:39.001Z,242.20
2022-08-22T10:08:05.271Z,239.57
2022-08-22T10:18:33.023Z,226.77
2022-08-22T10:28:49.878Z,237.03
2022-08-22T10:38:57.705Z,239.03
2022-08-22T10:49:08.238Z,227.00
2022-08-22T10:59:32.212Z,241.63
2022-08-22T11:09:43.603Z,295.33
2022-08-22T11:20:10.044Z,282.95
2022-08-22T11:30:18.377Z,282.08
2022-08-22T11:40:41.851Z,276.88
2022-08-22T11:50:52.267Z,296.65
2022-08-22T12:01:04.572Z,266.75
2022-08-22T12:11:13.922Z,267.85
2022-08-22T12:22:05.433Z,267.77
2022-08-22T12:33:01.837Z,250.18
2022-08-22T12:43:32.397Z,262.70
2022-08-22T12:54:10.592Z,274.33
2022-08-22T13:04:33.072Z,257.15
2022-08-22T13:14:37.882Z,264.08
2022-08-22T13:24:52.452Z,265.90
2022-08-22T13:34:59.487Z,259.02
2022-08-22T13:45:14.258Z,259.27
2022-08-22T13:55:29.509Z,267.35
2022-08-22T14:05:40.433Z,260.83
2022-08-22T14:15:44.818Z,264.73
2022-08-22T14:25:51.405Z,265.20
2022-08-22T14:36:02.174Z,267.73
2022-08-22T14:46:12.674Z,256.60
2022-08-22T14:56:24.225Z,245.73
2022-08-22T15:06:38.449Z,250.40
2022-08-22T15:16:57.255Z,244.07
2022-08-22T15:27:02.469Z,256.80
2022-08-22T15:37:32.750Z,273.43
2022-08-22T15:47:43.233Z,272.20
2022-08-22T15:58:06.859Z,273.50
2022-08-22T16:08:14.416Z,269.03
2022-08-22T16:19:14.210Z,267.63
2022-08-22T16:29:35.875Z,257.43
2022-08-22T16:39:48.766Z,263.10
2022-08-22T16:50:06.453Z,258.40
2022-08-22T17:00:22.797Z,258.20
2022-08-22T17:10:44.966Z,268.83
2022-08-22T17:20:57.565Z,266.87
2022-08-22T17:31:09.685Z,265.60
2022-08-22T17:41:32.744Z,267.63
2022-08-22T17:51:46.957Z,261.10
2022-08-22T18:01:55.528Z,267.13
2022-08-22T18:12:08.890Z,255.73
2022-08-22T18:22:22.784Z,261.70
2022-08-22T18:32:35.146Z,254.67
2022-08-22T18:42:45.518Z,252.47
2022-08-22T18:52:51.119Z,248.23
2022-08-22T19:03:24.501Z,253.70
2022-08-22T19:14:08.930Z,262.33
2022-08-22T19:24:47.532Z,247.20
2022-08-22T19:35:20.947Z,244.67
2022-08-22T19:45:29.481Z,242.13
2022-08-22T19:55:54.575Z,241.10
2022-08-22T20:06:06.987Z,245.90
2022-08-22T20:16:21.413Z,231.53
2022-08-22T20:26:25.349Z,243.13
2022-08-22T20:36:32.594Z,244.20
2022-08-22T20:47:41.099Z,234.67
2022-08-22T20:57:53.448Z,219.27
2022-08-22T21:08:08.720Z,221.87
2022-08-22T21:18:24.205Z,221.40
2022-08-22T21:28:32.575Z,245.33
2022-08-22T21:38:38.613Z,226.13
2022-08-22T21:48:46.010Z,230.90
2022-08-22T21:58:51.276Z,228.10
2022-08-22T22:08:55.657Z,228.30
2022-08-22T22:19:01.936Z,216.37
2022-08-22T22:29:05.912Z,225.47
2022-08-22T22:39:14.135Z,227.43
2022-08-22T22:49:19.543Z,232.77
2022-08-22T22:59:25.370Z,228.87
2022-08-22T23:09:44.911Z,228.03
2022-08-22T23:20:01.143Z,230.30
2022-08-22T23:30:06.136Z,234.80
2022-08-22T23:40:13.099Z,237.37
2022-08-22T23:50:17.006Z,239.13
